createdAt,value
2022-10-14T00:02:28.866Z,30.73
2022-10-14T00:05:31.998Z,29.33
2022-10-14T00:08:35.684Z,29.10
2022-10-14T00:11:39.301Z,32.03
2022-10-14T00:14:43.868Z,30.40
2022-10-14T00:17:46.970Z,31.57
2022-10-14T00:20:55.860Z,29.37
2022-10-14T00:23:59.527Z,29.80
2022-10-14T00:27:02.600Z,30.60
2022-10-14T00:30:08.179Z,30.13
2022-10-14T00:33:11.271Z,30.00
2022-10-14T00:36:16.026Z,29.23
2022-10-14T00:39:19.252Z,32.70
2022-10-14T00:42:22.635Z,33.03
2022-10-14T00:45:27.267Z,31.17
2022-10-14T00:48:30.411Z,28.97
2022-10-14T00:51:33.820Z,28.13
2022-10-14T00:54:39.804Z,30.87
2022-10-14T00:57:43.137Z,27.10
2022-10-14T01:00:47.641Z,27.93
2022-10-14T01:03:50.836Z,29.30
2022-10-14T01:07:06.725Z,28.00
2022-10-14T01:10:15.975Z,27.37
2022-10-14T01:13:27.835Z,26.90
2022-10-14T01:16:45.970Z,27.97
2022-10-14T01:20:06.550Z,29.37
2022-10-14T01:23:36.813Z,26.80
2022-10-14T01:26:59.298Z,26.63
2022-10-14T01:30:13.449Z,29.13
2022-10-14T01:33:21.496Z,29.60
2022-10-14T01:36:31.512Z,29.87
2022-10-14T01:39:40.739Z,29.87
2022-10-14T01:42:45.572Z,29.60
2022-10-14T01:45:51.543Z,27.90
2022-10-14T01:48:59.306Z,29.17
2022-10-14T01:52:07.026Z,29.30
2022-10-14T01:55:15.011Z,27.77
2022-10-14T01:58:21.097Z,28.97
2022-10-14T02:01:26.027Z,29.77
2022-10-14T02:04:29.220Z,28.53
2022-10-14T02:07:39.245Z,27.10
2022-10-14T02:11:02.605Z,30.17
2022-10-14T02:14:12.979Z,29.13
2022-10-14T02:17:22.319Z,26.77
2022-10-14T02:20:30.300Z,28.13
2022-10-14T02:23:39.121Z,26.43
2022-10-14T02:26:43.343Z,27.33
2022-10-14T02:29:48.396Z,28.93
2022-10-14T02:32:54.160Z,29.67
2022-10-14T02:35:58.083Z,29.07
2022-10-14T02:39:02.607Z,30.20
2022-10-14T02:42:06.472Z,29.77
2022-10-14T02:45:11.973Z,28.43
2022-10-14T02:48:16.491Z,27.63
2022-10-14T02:51:19.590Z,26.60
2022-10-14T02:54:22.723Z,27.93
2022-10-14T02:57:25.930Z,26.97
2022-10-14T03:00:29.049Z,27.57
2022-10-14T03:03:33.533Z,30.07
2022-10-14T03:06:36.610Z,29.00
2022-10-14T03:09:39.682Z,28.83
2022-10-14T03:12:42.768Z,31.30
2022-10-14T03:15:45.838Z,29.30
2022-10-14T03:18:50.332Z,29.10
2022-10-14T03:21:53.411Z,28.30
2022-10-14T03:24:56.515Z,27.23
2022-10-14T03:27:59.644Z,29.50
2022-10-14T03:31:02.744Z,33.30
2022-10-14T03:34:07.364Z,30.87
2022-10-14T03:37:10.525Z,31.60
2022-10-14T03:40:14.225Z,30.37
2022-10-14T03:43:17.324Z,29.47
2022-10-14T03:46:20.472Z,26.73
2022-10-14T03:49:25.037Z,26.63
2022-10-14T03:52:28.170Z,27.33
2022-10-14T03:55:31.570Z,28.13
2022-10-14T03:58:34.648Z,28.60
2022-10-14T04:01:37.883Z,26.53
2022-10-14T04:04:42.383Z,28.03
2022-10-14T04:07:45.464Z,26.87
2022-10-14T04:10:53.885Z,28.10
2022-10-14T04:13:59.424Z,27.10
2022-10-14T04:17:02.503Z,29.10
2022-10-14T04:20:07.953Z,29.70
2022-10-14T04:23:11.326Z,29.63
2022-10-14T04:26:14.486Z,29.30
2022-10-14T04:29:17.567Z,28.97
2022-10-14T04:32:21.035Z,30.17
2022-10-14T04:35:25.758Z,29.93
2022-10-14T04:38:29.543Z,25.83
2022-10-14T04:41:32.706Z,27.30
2022-10-14T04:44:35.872Z,28.13
2022-10-14T04:47:38.995Z,27.00
2022-10-14T04:50:43.573Z,30.43
2022-10-14T04:53:46.676Z,26.83
2022-10-14T04:56:49.770Z,29.20
2022-10-14T04:59:52.862Z,29.70
2022-10-14T05:02:56.005Z,29.27
2022-10-14T05:06:00.720Z,27.60
2022-10-14T05:09:03.900Z,32.20
2022-10-14T05:12:07.471Z,29.60
2022-10-14T05:15:11.081Z,27.73
2022-10-14T05:18:14.375Z,28.97
2022-10-14T05:21:18.853Z,26.63
2022-10-14T05:24:21.956Z,27.80
2022-10-14T05:27:25.084Z,29.40
2022-10-14T05:30:33.643Z,28.67
2022-10-14T05:33:37.781Z,27.67
2022-10-14T05:36:42.268Z,28.27
2022-10-14T05:39:45.412Z,27.57
2022-10-14T05:42:48.590Z,28.37
2022-10-14T05:45:51.795Z,28.10
2022-10-14T05:48:54.891Z,27.53
2022-10-14T05:51:59.349Z,27.43
2022-10-14T05:55:02.657Z,27.43
2022-10-14T05:58:05.843Z,27.37
2022-10-14T06:01:11.653Z,28.53
2022-10-14T06:04:19.012Z,27.60
2022-10-14T06:07:23.469Z,26.33
2022-10-14T06:10:27.409Z,28.17
2022-10-14T06:13:30.578Z,29.30
2022-10-14T06:16:33.774Z,29.90
2022-10-14T06:19:37.342Z,27.87
2022-10-14T06:22:41.850Z,28.60
2022-10-14T06:25:44.962Z,27.23
2022-10-14T06:28:48.256Z,27.57
2022-10-14T06:31:51.494Z,26.30
2022-10-14T06:34:54.605Z,25.43
2022-10-14T06:37:59.430Z,25.97
2022-10-14T06:41:02.577Z,23.13
2022-10-14T06:44:05.757Z,21.47
2022-10-14T06:47:09.308Z,21.30
2022-10-14T06:50:12.425Z,22.00
2022-10-14T06:53:17.047Z,21.17
2022-10-14T06:56:20.187Z,21.73
2022-10-14T06:59:23.447Z,22.13
2022-10-14T07:02:26.753Z,21.63
2022-10-14T07:05:29.855Z,21.33
2022-10-14T07:08:34.370Z,22.50
2022-10-14T07:11:37.514Z,22.23
2022-10-14T07:14:40.618Z,21.23
2022-10-14T07:17:43.710Z,23.33
2022-10-14T07:20:47.024Z,23.40
2022-10-14T07:23:51.591Z,23.37
2022-10-14T07:26:55.193Z,22.37
2022-10-14T07:29:58.398Z,21.97
2022-10-14T07:33:01.699Z,22.50
2022-10-14T07:36:06.601Z,20.90
2022-10-14T07:39:11.156Z,23.07
2022-10-14T07:42:14.269Z,22.93
2022-10-14T07:45:18.693Z,24.60
2022-10-14T07:48:27.467Z,23.30
2022-10-14T07:51:42.482Z,23.23
2022-10-14T07:54:47.561Z,24.10
2022-10-14T07:57:50.647Z,23.87
2022-10-14T08:00:54.231Z,20.03
2022-10-14T08:03:57.598Z,21.37
2022-10-14T08:07:01.366Z,19.67
2022-10-14T08:10:06.676Z,19.90
2022-10-14T08:13:09.974Z,20.67
2022-10-14T08:16:16.411Z,20.90
2022-10-14T08:19:19.565Z,21.27
2022-10-14T08:22:22.970Z,21.53
2022-10-14T08:25:28.077Z,22.20
2022-10-14T08:28:31.304Z,22.67
2022-10-14T08:31:35.044Z,22.77
2022-10-14T08:34:38.152Z,22.37
2022-10-14T08:37:41.536Z,21.52
2022-10-14T08:41:03.648Z,23.17
2022-10-14T08:44:17.783Z,22.80
2022-10-14T08:47:26.792Z,23.30
2022-10-14T08:50:38.399Z,23.98
2022-10-14T08:53:46.209Z,22.98
2022-10-14T08:56:51.126Z,21.58
2022-10-14T08:59:54.848Z,24.15
2022-10-14T09:02:59.698Z,23.27
2022-10-14T09:06:06.270Z,22.13
2022-10-14T09:09:16.168Z,23.13
2022-10-14T09:12:24.045Z,23.17
2022-10-14T09:15:33.674Z,23.35
2022-10-14T09:18:41.688Z,23.25
2022-10-14T09:21:52.745Z,23.13
2022-10-14T09:24:56.589Z,22.00
2022-10-14T09:28:01.100Z,21.60
2022-10-14T09:31:05.017Z,21.88
2022-10-14T09:34:10.238Z,22.00
2022-10-14T09:37:29.227Z,21.85
2022-10-14T09:40:35.203Z,22.63
2022-10-14T09:43:39.875Z,20.92
2022-10-14T09:46:43.543Z,23.27
2022-10-14T09:49:49.448Z,22.42
2022-10-14T09:53:01.513Z,23.23
2022-10-14T09:56:07.885Z,23.08
2022-10-14T09:59:19.187Z,22.15
2022-10-14T10:02:25.722Z,24.67
2022-10-14T10:05:30.534Z,23.10
2022-10-14T10:08:34.579Z,22.25
2022-10-14T10:11:39.199Z,23.90
2022-10-14T10:14:56.443Z,23.48
2022-10-14T10:17:59.600Z,22.40
2022-10-14T10:21:07.003Z,22.70
2022-10-14T10:24:24.894Z,23.75
2022-10-14T10:27:35.617Z,22.80
2022-10-14T10:30:44.570Z,24.20
2022-10-14T10:33:55.203Z,25.30
2022-10-14T10:37:05.574Z,24.38
2022-10-14T10:40:25.840Z,25.73
2022-10-14T10:43:53.651Z,23.50
2022-10-14T10:47:16.189Z,25.13
2022-10-14T10:50:30.029Z,22.92
2022-10-14T10:53:57.242Z,22.00
2022-10-14T10:57:05.162Z,26.05
2022-10-14T11:00:13.537Z,24.60
2022-10-14T11:03:31.261Z,28.40
2022-10-14T11:06:57.739Z,25.25
2022-10-14T11:10:25.632Z,25.00
2022-10-14T11:13:38.445Z,28.90
2022-10-14T11:16:50.186Z,29.35
2022-10-14T11:20:05.443Z,27.47
2022-10-14T11:23:28.549Z,27.53
2022-10-14T11:27:03.035Z,30.10
2022-10-14T11:30:18.438Z,28.57
2022-10-14T11:33:39.858Z,28.33
2022-10-14T11:36:56.114Z,28.60
2022-10-14T11:40:02.063Z,28.73
2022-10-14T11:43:20.180Z,26.63
2022-10-14T11:46:26.938Z,29.08
2022-10-14T11:49:34.270Z,29.25
2022-10-14T11:52:44.489Z,29.77
2022-10-14T11:55:53.630Z,29.92
2022-10-14T11:59:00.314Z,30.90
2022-10-14T12:02:13.135Z,29.88
2022-10-14T12:05:22.512Z,29.48
2022-10-14T12:08:35.667Z,28.92
2022-10-14T12:11:45.248Z,29.30
2022-10-14T12:14:52.682Z,29.05
2022-10-14T12:17:58.655Z,28.42
2022-10-14T12:21:19.333Z,29.85
2022-10-14T12:24:27.678Z,30.02
2022-10-14T12:27:32.122Z,28.90
2022-10-14T12:30:38.201Z,29.75
2022-10-14T12:34:17.534Z,28.08
2022-10-14T12:37:50.638Z,31.23
2022-10-14T12:40:55.265Z,31.90
2022-10-14T12:44:04.209Z,31.23
2022-10-14T12:47:16.432Z,30.10
2022-10-14T12:50:30.472Z,30.48
2022-10-14T12:53:35.801Z,33.03
2022-10-14T12:56:44.663Z,34.47
2022-10-14T12:59:52.943Z,33.50
2022-10-14T13:03:00.082Z,35.15
2022-10-14T13:06:35.573Z,35.28
2022-10-14T13:09:38.910Z,37.20
2022-10-14T13:12:45.017Z,34.73
2022-10-14T13:15:52.513Z,32.10
2022-10-14T13:18:58.015Z,30.77
2022-10-14T13:22:01.634Z,31.67
2022-10-14T13:25:12.242Z,33.10
2022-10-14T13:28:26.735Z,32.90
2022-10-14T13:31:37.962Z,34.33
2022-10-14T13:34:50.811Z,36.85
2022-10-14T13:37:59.948Z,37.83
2022-10-14T13:41:04.776Z,40.10
2022-10-14T13:44:13.352Z,39.40
2022-10-14T13:47:21.396Z,37.63
2022-10-14T13:50:28.976Z,40.50
2022-10-14T13:53:32.112Z,38.03
2022-10-14T13:56:35.341Z,39.50
2022-10-14T13:59:46.863Z,40.17
2022-10-14T14:03:17.135Z,39.17
2022-10-14T14:06:22.730Z,34.13
2022-10-14T14:09:28.439Z,36.33
2022-10-14T14:12:31.800Z,34.27
2022-10-14T14:15:37.769Z,35.27
2022-10-14T14:19:03.843Z,33.30
2022-10-14T14:22:18.852Z,34.50
2022-10-14T14:25:34.926Z,34.77
2022-10-14T14:28:39.000Z,34.47
2022-10-14T14:32:05.671Z,34.60
2022-10-14T14:35:16.066Z,34.03
2022-10-14T14:38:29.763Z,34.33
2022-10-14T14:41:34.375Z,34.07
2022-10-14T14:44:37.870Z,33.00
2022-10-14T14:47:42.831Z,35.43
2022-10-14T14:50:46.773Z,35.30
2022-10-14T14:53:53.882Z,35.77
2022-10-14T14:57:03.424Z,37.77
2022-10-14T15:00:08.536Z,35.73
2022-10-14T15:03:13.282Z,35.30
2022-10-14T15:06:18.021Z,36.67
2022-10-14T15:09:27.788Z,35.67
2022-10-14T15:12:34.227Z,34.93
2022-10-14T15:15:38.234Z,36.10
2022-10-14T15:18:43.651Z,36.67
2022-10-14T15:21:47.932Z,36.80
2022-10-14T15:25:06.666Z,37.53
2022-10-14T15:28:30.638Z,33.13
2022-10-14T15:31:34.389Z,34.27
2022-10-14T15:34:38.931Z,35.00
2022-10-14T15:37:42.450Z,34.70
2022-10-14T15:40:46.205Z,35.33
2022-10-14T15:43:49.370Z,36.63
2022-10-14T15:47:09.750Z,34.37
2022-10-14T15:50:18.688Z,37.17
2022-10-14T15:53:21.782Z,35.33
2022-10-14T15:56:25.206Z,34.80
2022-10-14T15:59:28.708Z,36.37
2022-10-14T16:02:35.200Z,39.80
2022-10-14T16:05:40.013Z,38.57
2022-10-14T16:08:43.289Z,37.77
2022-10-14T16:11:46.490Z,37.33
2022-10-14T16:14:49.614Z,37.83
2022-10-14T16:17:53.250Z,39.17
2022-10-14T16:20:57.829Z,37.40
2022-10-14T16:24:02.357Z,40.87
2022-10-14T16:27:05.573Z,40.13
2022-10-14T16:30:11.430Z,39.77
2022-10-14T16:33:15.338Z,40.10
2022-10-14T16:36:20.350Z,41.23
2022-10-14T16:39:23.535Z,45.03
2022-10-14T16:42:26.741Z,42.50
2022-10-14T16:45:29.873Z,46.20
2022-10-14T16:48:34.892Z,46.40
2022-10-14T16:51:39.569Z,43.33
2022-10-14T16:54:42.999Z,43.10
2022-10-14T16:57:46.289Z,39.37
2022-10-14T17:00:49.738Z,41.27
2022-10-14T17:03:52.869Z,42.90
2022-10-14T17:06:57.917Z,40.93
2022-10-14T17:10:01.359Z,42.77
2022-10-14T17:13:04.979Z,40.37
2022-10-14T17:16:08.688Z,44.50
2022-10-14T17:19:12.308Z,43.07
2022-10-14T17:22:20.041Z,40.57
2022-10-14T17:25:23.393Z,43.17
2022-10-14T17:28:26.842Z,43.97
2022-10-14T17:31:30.521Z,42.47
2022-10-14T17:34:34.027Z,43.57
2022-10-14T17:37:38.547Z,42.67
2022-10-14T17:40:42.159Z,43.53
2022-10-14T17:43:49.467Z,42.63
2022-10-14T17:46:53.312Z,42.80
2022-10-14T17:49:57.329Z,41.40
2022-10-14T17:53:05.007Z,42.53
2022-10-14T17:56:12.751Z,44.03
2022-10-14T17:59:16.736Z,42.27
2022-10-14T18:02:20.834Z,42.73
2022-10-14T18:05:24.793Z,43.20
2022-10-14T18:08:30.634Z,45.90
2022-10-14T18:12:03.504Z,44.10
2022-10-14T18:15:03.273Z,45.23
2022-10-14T18:18:08.297Z,44.37
2022-10-14T18:21:13.147Z,43.17
2022-10-14T18:24:18.893Z,44.17
2022-10-14T18:27:22.738Z,41.90
2022-10-14T18:30:27.246Z,43.40
2022-10-14T18:33:36.112Z,40.97
2022-10-14T18:36:40.228Z,42.10
2022-10-14T18:39:46.597Z,41.03
2022-10-14T18:42:57.626Z,43.13
2022-10-14T18:46:07.061Z,41.67
2022-10-14T18:49:14.504Z,42.17
2022-10-14T18:52:21.191Z,42.33
2022-10-14T18:55:27.103Z,44.43
2022-10-14T18:58:31.422Z,45.30
2022-10-14T19:01:37.085Z,42.40
2022-10-14T19:04:41.921Z,42.73
2022-10-14T19:07:46.471Z,41.47
2022-10-14T19:10:52.094Z,44.90
2022-10-14T19:13:58.195Z,43.90
2022-10-14T19:17:02.768Z,45.53
2022-10-14T19:20:08.940Z,41.90
2022-10-14T19:23:13.298Z,44.33
2022-10-14T19:26:23.373Z,41.93
2022-10-14T19:29:27.411Z,41.30
2022-10-14T19:32:31.932Z,41.97
2022-10-14T19:35:36.091Z,42.90
2022-10-14T19:38:41.098Z,43.03
2022-10-14T19:41:47.659Z,42.90
2022-10-14T19:44:53.068Z,42.30
2022-10-14T19:47:56.874Z,42.83
2022-10-14T19:51:06.154Z,42.73
2022-10-14T19:54:12.560Z,44.07
2022-10-14T19:57:17.252Z,42.43
2022-10-14T20:00:20.538Z,44.70
2022-10-14T20:03:24.364Z,42.43
2022-10-14T20:06:29.753Z,42.07
2022-10-14T20:09:33.263Z,42.47
2022-10-14T20:12:38.323Z,42.83
2022-10-14T20:15:41.820Z,41.17
2022-10-14T20:18:45.328Z,44.10
2022-10-14T20:21:48.675Z,44.67
2022-10-14T20:24:52.374Z,41.90
2022-10-14T20:27:57.249Z,45.27
2022-10-14T20:31:00.696Z,43.50
2022-10-14T20:34:08.684Z,43.90
2022-10-14T20:37:14.718Z,41.07
2022-10-14T20:40:18.286Z,43.50
2022-10-14T20:43:22.860Z,49.50
2022-10-14T20:46:26.103Z,44.87
2022-10-14T20:49:29.541Z,47.70
2022-10-14T20:52:32.940Z,88.37
2022-10-14T20:55:36.064Z,118.17
2022-10-14T20:58:41.305Z,64.07
2022-10-14T21:01:44.561Z,58.50
2022-10-14T21:04:49.093Z,64.50
2022-10-14T21:07:53.245Z,55.23
2022-10-14T21:10:59.341Z,44.80
2022-10-14T21:14:04.260Z,43.97
2022-10-14T21:17:07.418Z,41.37
2022-10-14T21:20:11.311Z,46.00
2022-10-14T21:23:14.490Z,40.70
2022-10-14T21:26:18.085Z,49.70
2022-10-14T21:29:23.114Z,51.07
2022-10-14T21:32:26.897Z,45.30
2022-10-14T21:35:30.725Z,49.63
2022-10-14T21:38:34.076Z,46.23
2022-10-14T21:41:37.362Z,44.53
2022-10-14T21:44:41.993Z,40.80
2022-10-14T21:47:45.180Z,45.00
2022-10-14T21:50:48.424Z,42.67
2022-10-14T21:53:51.631Z,45.83
2022-10-14T21:56:57.682Z,43.10
2022-10-14T22:00:02.287Z,42.87
2022-10-14T22:03:05.696Z,45.17
2022-10-14T22:06:10.682Z,41.60
2022-10-14T22:09:13.947Z,44.47
2022-10-14T22:12:17.102Z,41.67
2022-10-14T22:15:21.615Z,41.60
2022-10-14T22:18:25.082Z,43.93
2022-10-14T22:21:30.270Z,42.27
2022-10-14T22:24:33.390Z,41.10
2022-10-14T22:27:36.848Z,42.60
2022-10-14T22:30:41.353Z,42.83
2022-10-14T22:33:45.002Z,41.23
2022-10-14T22:36:48.239Z,41.67
2022-10-14T22:39:51.343Z,40.60
2022-10-14T22:42:55.223Z,41.30
2022-10-14T22:46:04.142Z,40.57
2022-10-14T22:49:07.941Z,40.87
2022-10-14T22:52:11.049Z,42.73
2022-10-14T22:55:14.334Z,42.60
2022-10-14T22:58:17.669Z,43.10
2022-10-14T23:01:23.029Z,41.40
2022-10-14T23:04:26.182Z,40.83
2022-10-14T23:07:30.013Z,40.03
2022-10-14T23:10:33.438Z,40.57
2022-10-14T23:13:36.724Z,39.70
2022-10-14T23:16:41.389Z,41.97
2022-10-14T23:19:44.648Z,41.20
2022-10-14T23:22:47.954Z,39.10
2022-10-14T23:25:51.206Z,39.13
2022-10-14T23:28:57.582Z,39.70
2022-10-14T23:32:03.037Z,39.27
2022-10-14T23:35:07.132Z,41.07
2022-10-14T23:38:12.709Z,38.10
2022-10-14T23:41:16.459Z,36.83
2022-10-14T23:44:19.639Z,37.77
2022-10-14T23:47:24.656Z,39.37
2022-10-14T23:50:28.313Z,40.23
2022-10-14T23:53:31.439Z,38.30
2022-10-14T23:56:34.658Z,39.93
2022-10-14T23:59:37.894Z,37.63
